createdAt,value
2018-12-12T00:01:04.913Z,100850.56
2018-12-12T00:06:08.991Z,100851.67
2018-12-12T00:11:11.341Z,100854.69
2018-12-12T00:16:14.009Z,100857.08
2018-12-12T00:21:16.069Z,100864.05
2018-12-12T00:26:19.255Z,100870.56
2018-12-12T00:31:21.450Z,100868.13
2018-12-12T00:36:23.694Z,100880.47
2018-12-12T00:41:25.753Z,100879.44
2018-12-12T00:46:27.805Z,100886.14
2018-12-12T00:51:30.326Z,100892.50
2018-12-12T00:56:32.403Z,100894.52
2018-12-12T01:01:34.562Z,100894.65
2018-12-12T01:06:36.605Z,100901.08
2018-12-12T01:11:46.005Z,100902.43
2018-12-12T01:16:48.057Z,100908.88
2018-12-12T01:21:50.637Z,100909.55
2018-12-12T01:26:52.931Z,100908.28
2018-12-12T01:31:55.110Z,100918.81
2018-12-12T01:36:57.366Z,100918.38
2018-12-12T01:42:00.381Z,100914.13
2018-12-12T01:47:02.660Z,100917.14
2018-12-12T01:52:04.845Z,100915.13
2018-12-12T01:57:06.910Z,100916.84
2018-12-12T02:02:09.069Z,100927.50
2018-12-12T02:07:11.438Z,100923.64
2018-12-12T02:12:13.754Z,100921.47
2018-12-12T02:17:15.917Z,100933.02
2018-12-12T02:22:18.145Z,100935.42
2018-12-12T02:27:21.145Z,100937.53
2018-12-12T02:32:23.293Z,100942.89
2018-12-12T02:37:25.848Z,100945.70
2018-12-12T02:42:28.157Z,100945.61
2018-12-12T02:47:30.403Z,100941.87
2018-12-12T02:52:32.588Z,100946.66
2018-12-12T02:57:41.602Z,100950.85
2018-12-12T03:02:43.911Z,100942.69
2018-12-12T03:07:46.168Z,100937.88
2018-12-12T03:12:48.253Z,100942.06
2018-12-12T03:17:50.333Z,100947.36
2018-12-12T03:22:52.406Z,100957.09
2018-12-12T03:27:54.463Z,100961.27
2018-12-12T03:32:57.003Z,100959.75
2018-12-12T03:37:59.061Z,100964.59
2018-12-12T03:43:01.247Z,100966.38
2018-12-12T03:48:03.704Z,100964.59
2018-12-12T03:53:06.008Z,100966.94
2018-12-12T03:58:08.050Z,100968.43
2018-12-12T04:03:10.102Z,100975.03
2018-12-12T04:08:12.313Z,100972.58
2018-12-12T04:13:14.593Z,100981.58
2018-12-12T04:18:16.937Z,100976.63
2018-12-12T04:23:22.047Z,100984.39
2018-12-12T04:28:24.126Z,100975.87
2018-12-12T04:33:26.317Z,100985.32
2018-12-12T04:38:28.652Z,100995.94
2018-12-12T04:43:30.702Z,100990.95
2018-12-12T04:48:37.813Z,100993.55
2018-12-12T04:53:39.879Z,101004.30
2018-12-12T04:58:42.049Z,101000.84
2018-12-12T05:03:44.331Z,100996.04
2018-12-12T05:08:46.454Z,101002.11
2018-12-12T05:13:49.644Z,100997.65
2018-12-12T05:18:51.712Z,101001.00
2018-12-12T05:23:53.975Z,100993.58
2018-12-12T05:28:56.267Z,100993.50
2018-12-12T05:33:58.433Z,101003.26
2018-12-12T05:39:07.405Z,101004.75
2018-12-12T05:44:10.682Z,101012.21
2018-12-12T05:49:12.874Z,101013.42
2018-12-12T05:54:15.069Z,101014.69
2018-12-12T05:59:17.257Z,101022.98
2018-12-12T06:04:19.360Z,101019.34
2018-12-12T06:09:21.737Z,101026.67
2018-12-12T06:14:23.845Z,101026.27
2018-12-12T06:19:26.006Z,101035.48
2018-12-12T06:24:29.174Z,101040.31
2018-12-12T06:29:31.362Z,101036.62
2018-12-12T06:34:33.514Z,101045.02
2018-12-12T06:39:35.755Z,101044.18
2018-12-12T06:44:37.814Z,101057.00
2018-12-12T06:49:39.981Z,101055.69
2018-12-12T06:54:42.197Z,101055.30
2018-12-12T06:59:44.293Z,101055.34
2018-12-12T07:04:46.581Z,101059.51
2018-12-12T07:09:49.382Z,101065.61
2018-12-12T07:14:51.466Z,101075.09
2018-12-12T07:19:53.673Z,101078.68
2018-12-12T07:24:55.849Z,101085.78
2018-12-12T07:29:57.889Z,101081.61
2018-12-12T07:34:59.937Z,101091.47
2018-12-12T07:40:02.210Z,101094.68
2018-12-12T07:45:04.480Z,101092.59
2018-12-12T07:50:08.869Z,101105.23
2018-12-12T07:55:27.881Z,101107.61
2018-12-12T08:00:30.901Z,101113.76
2018-12-12T08:05:32.944Z,101124.18
2018-12-12T08:10:35.145Z,101127.39
2018-12-12T08:15:37.201Z,101138.41
2018-12-12T08:20:39.237Z,101141.91
2018-12-12T08:25:42.430Z,101142.84
2018-12-12T08:30:44.593Z,101154.20
2018-12-12T08:35:46.854Z,101152.96
2018-12-12T08:40:48.930Z,101159.97
2018-12-12T08:45:51.277Z,101172.21
2018-12-12T08:50:53.931Z,101178.16
2018-12-12T08:55:56.370Z,101181.20
2018-12-12T09:00:58.429Z,101186.30
2018-12-12T09:06:00.521Z,101189.89
2018-12-12T09:11:02.857Z,101195.59
2018-12-12T09:16:05.153Z,101198.48
2018-12-12T09:21:07.309Z,101203.77
2018-12-12T09:26:09.407Z,101201.06
2018-12-12T09:31:11.732Z,101200.80
2018-12-12T09:36:15.789Z,101204.39
2018-12-12T09:41:17.957Z,101202.01
2018-12-12T09:46:20.134Z,101202.10
2018-12-12T09:51:22.289Z,101217.07
2018-12-12T09:56:26.530Z,101223.02
2018-12-12T10:01:28.710Z,101221.77
2018-12-12T10:06:30.880Z,101230.42
2018-12-12T10:11:33.050Z,101229.22
2018-12-12T10:16:35.266Z,101227.04
2018-12-12T10:21:37.422Z,101224.77
2018-12-12T10:26:39.741Z,101218.82
2018-12-12T10:31:42.026Z,101211.34
2018-12-12T10:36:44.114Z,101209.64
2018-12-12T10:41:46.593Z,101215.30
2018-12-12T10:46:48.653Z,101214.22
2018-12-12T10:51:50.939Z,101205.80
2018-12-12T10:56:53.032Z,101203.88
2018-12-12T11:02:00.981Z,101202.81
2018-12-12T11:07:03.314Z,101209.42
2018-12-12T11:12:05.633Z,101203.09
2018-12-12T11:17:07.785Z,101202.90
2018-12-12T11:22:09.881Z,101202.11
2018-12-12T11:27:11.969Z,101204.56
2018-12-12T11:32:14.017Z,101199.45
2018-12-12T11:37:16.289Z,101198.80
2018-12-12T11:42:18.614Z,101209.52
2018-12-12T11:47:20.665Z,101196.08
2018-12-12T11:52:22.717Z,101200.51
2018-12-12T11:57:25.224Z,101196.00
2018-12-12T12:02:27.453Z,101195.52
2018-12-12T12:07:29.884Z,101194.67
2018-12-12T12:12:32.013Z,101198.17
2018-12-12T12:17:34.163Z,101197.37
2018-12-12T12:22:36.222Z,101198.33
2018-12-12T12:27:38.302Z,101199.78
2018-12-12T12:32:47.457Z,101196.36
2018-12-12T12:37:49.617Z,101200.31
2018-12-12T12:42:51.785Z,101197.20
2018-12-12T12:47:53.977Z,101199.81
2018-12-12T12:52:56.026Z,101202.47
2018-12-12T12:57:58.073Z,101199.56
2018-12-12T13:03:00.271Z,101193.09
2018-12-12T13:08:03.153Z,101185.77
2018-12-12T13:13:05.638Z,101189.36
2018-12-12T13:18:08.341Z,101179.17
2018-12-12T13:23:10.501Z,101175.45
2018-12-12T13:28:12.885Z,101176.31
2018-12-12T13:33:15.181Z,101183.80
2018-12-12T13:38:17.229Z,101183.67
2018-12-12T13:43:26.213Z,101190.77
2018-12-12T13:48:28.286Z,101186.93
2018-12-12T13:53:30.558Z,101199.53
2018-12-12T13:58:32.654Z,101199.84
2018-12-12T14:03:34.740Z,101199.09
2018-12-12T14:08:36.973Z,101201.09
2018-12-12T14:13:39.211Z,101200.64
2018-12-12T14:18:41.270Z,101201.85
2018-12-12T14:23:43.385Z,101200.53
2018-12-12T14:28:45.424Z,101199.94
2018-12-12T14:33:55.701Z,101193.80
2018-12-12T14:38:57.784Z,101190.21
2018-12-12T14:43:59.826Z,101195.16
2018-12-12T14:49:08.969Z,101193.43
2018-12-12T14:54:11.141Z,101194.11
2018-12-12T14:59:13.968Z,101196.52
2018-12-12T15:04:16.199Z,101201.37
2018-12-12T15:09:18.281Z,101196.33
2018-12-12T15:14:20.397Z,101199.31
2018-12-12T15:19:22.450Z,101200.34
2018-12-12T15:24:24.553Z,101201.89
2018-12-12T15:29:27.542Z,101208.23
2018-12-12T15:34:29.711Z,101209.75
2018-12-12T15:39:31.954Z,101208.67
2018-12-12T15:44:33.997Z,101212.70
2018-12-12T15:49:36.095Z,101219.97
2018-12-12T15:54:38.367Z,101225.64
2018-12-12T15:59:40.478Z,101220.41
2018-12-12T16:04:48.815Z,101223.84
2018-12-12T16:09:46.738Z,101230.59
2018-12-12T16:14:48.833Z,101227.45
2018-12-12T16:19:50.882Z,101228.02
2018-12-12T16:24:52.937Z,101221.57
2018-12-12T16:29:55.034Z,101216.45
2018-12-12T16:34:57.122Z,101222.78
2018-12-12T16:39:59.297Z,101209.87
2018-12-12T16:45:01.460Z,101201.73
2018-12-12T16:50:10.570Z,101208.89
2018-12-12T16:55:12.888Z,101217.75
2018-12-12T17:00:16.306Z,101210.49
2018-12-12T17:05:18.595Z,101204.89
2018-12-12T17:10:20.903Z,101223.92
2018-12-12T17:15:23.078Z,101228.70
2018-12-12T17:20:25.345Z,101229.32
2018-12-12T17:25:27.421Z,101226.13
2018-12-12T17:30:30.102Z,101227.95
2018-12-12T17:35:32.193Z,101225.21
2018-12-12T17:40:34.261Z,101222.89
2018-12-12T17:45:36.641Z,101224.41
2018-12-12T17:50:38.841Z,101230.78
2018-12-12T17:55:40.886Z,101238.48
2018-12-12T18:00:43.061Z,101236.81
2018-12-12T18:05:47.280Z,101238.03
2018-12-12T18:10:49.459Z,101244.90
2018-12-12T18:15:51.503Z,101248.41
2018-12-12T18:20:59.406Z,101249.27
2018-12-12T18:26:03.678Z,101249.42
2018-12-12T18:31:16.165Z,101250.70
2018-12-12T18:36:41.287Z,101251.26
2018-12-12T18:41:43.809Z,101248.62
2018-12-12T18:47:06.830Z,101249.27
2018-12-12T18:52:08.888Z,101252.58
2018-12-12T18:57:11.069Z,101257.16
2018-12-12T19:02:13.428Z,101259.00
2018-12-12T19:07:16.786Z,101261.98
2018-12-12T19:12:20.293Z,101268.86
2018-12-12T19:17:22.449Z,101265.64
2018-12-12T19:22:24.617Z,101271.17
2018-12-12T19:27:27.206Z,101274.13
2018-12-12T19:32:29.261Z,101276.87
2018-12-12T19:37:32.236Z,101284.25
2018-12-12T19:42:34.658Z,101291.28
2018-12-12T19:47:36.814Z,101290.35
2018-12-12T19:52:38.968Z,101284.86
2018-12-12T19:57:41.249Z,101286.34
2018-12-12T20:02:43.406Z,101282.41
2018-12-12T20:07:45.709Z,101273.53
2018-12-12T20:12:47.905Z,101278.64
2018-12-12T20:17:50.064Z,101279.34
2018-12-12T20:22:52.485Z,101285.85
2018-12-12T20:27:54.628Z,101289.19
2018-12-12T20:32:56.673Z,101287.39
2018-12-12T20:37:58.934Z,101299.50
2018-12-12T20:43:01.122Z,101294.64
2018-12-12T20:48:04.357Z,101297.02
2018-12-12T20:53:06.560Z,101298.70
2018-12-12T20:58:08.625Z,101297.16
2018-12-12T21:03:10.669Z,101302.93
2018-12-12T21:08:13.189Z,101303.47
2018-12-12T21:13:15.250Z,101310.88
2018-12-12T21:18:18.600Z,101313.47
2018-12-12T21:23:21.853Z,101318.34
2018-12-12T21:28:23.945Z,101316.53
2018-12-12T21:33:26.105Z,101316.00
2018-12-12T21:38:28.237Z,101314.05
2018-12-12T21:43:30.277Z,101313.89
2018-12-12T21:48:32.326Z,101318.08
2018-12-12T21:53:34.384Z,101317.11
2018-12-12T21:58:36.548Z,101310.62
2018-12-12T22:03:38.697Z,101319.81
2018-12-12T22:08:41.037Z,101307.70
2018-12-12T22:13:43.225Z,101306.00
2018-12-12T22:18:45.382Z,101313.39
2018-12-12T22:23:47.409Z,101321.45
2018-12-12T22:28:50.016Z,101317.27
2018-12-12T22:33:52.174Z,101311.98
2018-12-12T22:38:54.369Z,101307.44
2018-12-12T22:43:56.554Z,101309.17
2018-12-12T22:48:58.620Z,101306.53
2018-12-12T22:54:00.666Z,101309.93
2018-12-12T22:59:02.909Z,101312.04
2018-12-12T23:04:05.195Z,101315.85
2018-12-12T23:09:08.181Z,101323.47
2018-12-12T23:14:10.282Z,101319.13
2018-12-12T23:19:12.466Z,101324.41
2018-12-12T23:24:14.525Z,101318.21
2018-12-12T23:29:16.608Z,101322.55
2018-12-12T23:34:18.661Z,101315.88
2018-12-12T23:39:20.721Z,101305.84
2018-12-12T23:44:22.961Z,101306.62
2018-12-12T23:49:25.217Z,101308.86
2018-12-12T23:54:27.253Z,101303.26
2018-12-12T23:59:29.453Z,101298.59
